Terminal Aerodrome Forecast
Issued by NWS Spokane, WA

Home | Current Version | Previous Version | Text Only | Print | Product List | Glossary On
Versions: 1 2 3 4 5 6 7 8 9 10 11 12 13 14 15 16 17 18 19 20 21 22 23 24 25 26 27 28
000
FTUS46 KOTX 031126
TAFGEG
TAF
KGEG 031126Z 0312/0412 18006KT P6SM SCT050 BKN100
     FM031700 21008KT P6SM SCT040 BKN060 BKN100
     FM040300 19004KT P6SM BKN100=

USA.gov is the U.S. government's official web portal to all federal, state and local government web resources and services.